Time;durP1;ratioP1;P1;durP2;ratioP2;P2;SDS_P1;SDS_P2;PMS_P1;PMS_P2;Temp;Humidity;BMP_temperature;BMP_pressure;BME280_temperature;BME280_humidity;BME280_pressure;Samples;Min_cycle;Max_cycle;Signal;HPM_P1;HPM_P2
2023/02/18 00:00:00;;;;;;;34.05;22.50;;;22.60;79.70;;;;;;1820510;78;21225;-84
2023/02/18 00:02:32;;;;;;;67.30;38.55;;;22.70;79.50;;;;;;1828648;77;21139;-84
2023/02/18 00:05:03;;;;;;;54.45;40.05;;;22.70;79.50;;;;;;1847583;77;21390;-85
2023/02/18 00:07:39;;;;;;;40.58;29.67;;;22.70;79.50;;;;;;1844322;77;21125;-83
2023/02/18 00:10:15;;;;;;;48.15;34.67;;;22.80;79.50;;;;;;1820749;77;21139;-84
2023/02/18 00:12:46;;;;;;;38.87;27.83;;;22.80;79.30;;;;;;1836655;77;21131;-84
2023/02/18 00:15:17;;;;;;;33.50;24.98;;;22.80;79.10;;;;;;1831212;77;21222;-83
2023/02/18 00:17:48;;;;;;;32.15;23.45;;;22.80;79.00;;;;;;1840305;77;21372;-84
2023/02/18 00:20:20;;;;;;;37.73;25.37;;;22.90;79.00;;;;;;1848812;77;21211;-84
2023/02/18 00:22:51;;;;;;;34.53;24.40;;;22.80;79.10;;;;;;1819459;77;21177;-88
2023/02/18 00:25:22;;;;;;;35.48;25.60;;;22.80;79.20;;;;;;1778761;79;21141;-84
2023/02/18 00:27:53;;;;;;;32.28;24.10;;;22.90;79.30;;;;;;1776070;80;21228;-85
2023/02/18 00:30:24;;;;;;;38.60;27.10;;;22.90;79.30;;;;;;1808100;79;21254;-83
2023/02/18 00:32:55;;;;;;;35.88;25.92;;;22.90;79.50;;;;;;1747162;81;22027;-84
2023/02/18 00:35:26;;;;;;;43.85;30.60;;;22.90;79.50;;;;;;1777632;79;21253;-84
2023/02/18 00:37:57;;;;;;;43.98;30.45;;;22.90;79.70;;;;;;1776760;81;21147;-83
2023/02/18 00:40:28;;;;;;;41.30;28.42;;;23.00;79.90;;;;;;1775680;80;21212;-85
2023/02/18 00:42:59;;;;;;;41.63;26.23;;;23.00;79.70;;;;;;1773233;81;21109;-83
2023/02/18 00:45:30;;;;;;;39.05;28.02;;;23.00;79.50;;;;;;1774602;81;21153;-85
2023/02/18 00:48:01;;;;;;;34.53;23.77;;;23.00;79.50;;;;;;1777625;80;21217;-86
2023/02/18 00:50:36;;;;;;;32.98;23.07;;;23.10;79.20;;;;;;1745594;79;21148;-86
2023/02/18 00:53:07;;;;;;;35.70;25.60;;;23.10;79.20;;;;;;1744589;80;21180;-84
2023/02/18 00:55:46;;;;;;;33.78;23.47;;;23.10;79.10;;;;;;1762507;81;21208;-83
2023/02/18 00:58:17;;;;;;;31.90;22.52;;;23.10;78.80;;;;;;1782362;80;21648;-83
2023/02/18 01:00:52;;;;;;;33.60;23.57;;;23.10;78.70;;;;;;1790725;79;21155;-84
2023/02/18 01:03:23;;;;;;;34.03;23.77;;;23.10;78.80;;;;;;1771162;79;21669;-86
2023/02/18 01:05:55;;;;;;;33.78;24.18;;;23.10;78.90;;;;;;1809672;77;21163;-84
2023/02/18 01:08:26;;;;;;;36.77;25.72;;;23.20;79.10;;;;;;1798402;79;21165;-84
2023/02/18 01:10:58;;;;;;;34.88;24.82;;;23.30;79.00;;;;;;1784565;80;21171;-83
2023/02/18 01:13:30;;;;;;;32.28;23.65;;;23.30;78.80;;;;;;1796615;79;21167;-83
2023/02/18 01:16:01;;;;;;;31.55;23.85;;;23.40;78.70;;;;;;1796994;79;21168;-85
2023/02/18 01:18:32;;;;;;;32.00;22.70;;;23.40;78.40;;;;;;1805690;79;21057;-84
2023/02/18 01:21:07;;;;;;;29.55;22.35;;;23.50;78.30;;;;;;1796910;79;21154;-85
2023/02/18 01:23:38;;;;;;;34.98;24.23;;;23.50;78.30;;;;;;1762375;81;21663;-85
2023/02/18 01:26:09;;;;;;;32.58;24.25;;;23.50;78.30;;;;;;1772280;79;21277;-84
2023/02/18 01:28:42;;;;;;;34.85;24.02;;;23.60;78.30;;;;;;1837659;78;21087;-82
2023/02/18 01:31:17;;;;;;;37.23;27.20;;;23.60;78.40;;;;;;1828406;77;21220;-84
2023/02/18 01:33:48;;;;;;;39.08;25.90;;;23.70;78.30;;;;;;1839751;78;21219;-85
2023/02/18 01:36:20;;;;;;;33.85;23.57;;;23.70;78.10;;;;;;1830044;77;21756;-86
2023/02/18 01:38:52;;;;;;;36.45;25.00;;;23.70;77.70;;;;;;1829989;77;21127;-87
2023/02/18 01:41:26;;;;;;;33.45;25.08;;;23.80;77.70;;;;;;1829595;78;21069;-86
2023/02/18 01:44:15;;;;;;;36.53;25.25;;;23.70;77.40;;;;;;1834146;78;21238;-86
2023/02/18 01:46:46;;;;;;;34.60;24.27;;;23.80;77.40;;;;;;1792964;79;21149;-88
2023/02/18 01:49:19;;;;;;;43.78;24.90;;;23.80;77.20;;;;;;1822277;78;21379;-75
2023/02/18 01:51:53;;;;;;;32.50;23.47;;;23.80;77.40;;;;;;1829205;78;21169;-77
2023/02/18 01:54:29;;;;;;;30.70;21.73;;;23.80;76.70;;;;;;1826908;78;21165;-79
2023/02/18 01:57:08;;;;;;;33.20;22.50;;;23.80;76.50;;;;;;1825042;78;21173;-79
2023/02/18 01:59:44;;;;;;;32.33;23.52;;;23.90;76.10;;;;;;1823892;78;21171;-77
2023/02/18 02:02:18;;;;;;;31.93;23.87;;;23.90;76.20;;;;;;1825155;78;21831;-75
2023/02/18 02:04:50;;;;;;;34.75;23.50;;;24.00;76.00;;;;;;1836363;78;21212;-76
2023/02/18 02:07:23;;;;;;;29.32;22.90;;;24.00;76.00;;;;;;1836848;78;21608;-75
2023/02/18 02:09:59;;;;;;;33.98;24.50;;;24.00;75.90;;;;;;1819831;78;21362;-75
2023/02/18 02:12:54;;;;;;;34.92;24.27;;;24.00;76.40;;;;;;1823963;78;21075;-76
2023/02/18 02:15:47;;;;;;;30.05;22.60;;;24.00;76.30;;;;;;1847847;77;21149;-75
2023/02/18 02:18:47;;;;;;;49.75;34.35;;;24.10;76.30;;;;;;1833960;77;21148;-74
2023/02/18 02:21:48;;;;;;;31.30;22.58;;;24.10;76.30;;;;;;1737393;77;21313;-75
2023/02/18 02:24:37;;;;;;;32.42;23.45;;;24.20;76.20;;;;;;1836801;77;21655;-74
2023/02/18 02:27:16;;;;;;;34.05;24.35;;;24.30;75.80;;;;;;1830194;77;21646;-73
2023/02/18 02:30:08;;;;;;;33.70;23.47;;;24.40;75.40;;;;;;1810896;78;21914;-73
2023/02/18 02:32:48;;;;;;;35.65;24.85;;;24.40;75.10;;;;;;1778984;78;21642;-74
2023/02/18 02:35:34;;;;;;;27.82;20.60;;;24.40;75.20;;;;;;1812662;78;21165;-75
2023/02/18 02:38:19;;;;;;;30.17;20.75;;;24.40;74.80;;;;;;1797430;78;21899;-74
2023/02/18 02:40:59;;;;;;;28.83;20.55;;;24.40;74.70;;;;;;1801028;78;21154;-74
2023/02/18 02:43:36;;;;;;;30.85;21.65;;;24.50;74.60;;;;;;1804337;78;21246;-74
2023/02/18 02:46:27;;;;;;;26.45;21.93;;;24.50;74.40;;;;;;1791387;78;21179;-76
2023/02/18 02:49:22;;;;;;;31.07;21.82;;;24.50;74.50;;;;;;1789566;78;21812;-73
2023/02/18 02:52:15;;;;;;;28.62;21.25;;;24.60;74.60;;;;;;1780717;79;21159;-74
2023/02/18 02:54:47;;;;;;;37.28;23.47;;;24.60;74.40;;;;;;1782076;80;21177;-73
2023/02/18 02:57:26;;;;;;;30.43;22.98;;;24.70;74.40;;;;;;1799521;78;21402;-75
2023/02/18 02:59:59;;;;;;;29.37;21.70;;;24.80;74.20;;;;;;1808419;78;21198;-74
2023/02/18 03:02:39;;;;;;;33.98;22.35;;;24.80;74.00;;;;;;1798768;78;21735;-74
2023/02/18 03:05:26;;;;;;;29.50;22.27;;;24.90;73.70;;;;;;1792532;78;21177;-75
2023/02/18 03:08:25;;;;;;;28.85;23.07;;;25.00;73.50;;;;;;1835080;77;21103;-74
2023/02/18 03:11:06;;;;;;;;;;;25.10;73.20;;;;;;1835358;77;21229;-76
2023/02/18 03:13:52;;;;;;;35.63;23.18;;;25.20;73.40;;;;;;1827918;78;20181;-74
2023/02/18 03:16:31;;;;;;;30.82;22.17;;;25.30;73.10;;;;;;1794324;77;21315;-74
2023/02/18 03:19:05;;;;;;;31.23;21.42;;;25.30;73.00;;;;;;1835153;77;21164;-74
2023/02/18 03:21:47;;;;;;;29.45;21.85;;;25.40;72.90;;;;;;1832295;78;21379;-73
2023/02/18 03:24:30;;;;;;;30.88;21.10;;;25.50;72.20;;;;;;1823025;77;21223;-75
2023/02/18 03:27:12;;;;;;;28.50;20.48;;;25.60;72.40;;;;;;1842508;77;21139;-75
2023/02/18 03:29:46;;;;;;;30.65;20.65;;;25.60;71.70;;;;;;1847090;77;21151;-74
2023/02/18 03:32:20;;;;;;;27.07;20.00;;;25.80;71.60;;;;;;1834282;77;21189;-74
2023/02/18 03:34:53;;;;;;;29.37;20.60;;;25.90;71.40;;;;;;1828701;77;21853;-73
2023/02/18 03:37:26;;;;;;;29.15;21.07;;;26.00;72.30;;;;;;1846776;77;21209;-74
2023/02/18 03:39:59;;;;;;;27.85;21.17;;;26.10;71.30;;;;;;1827918;77;21123;-73
2023/02/18 03:42:30;;;;;;;28.83;21.45;;;26.20;71.10;;;;;;1818583;78;21174;-74
2023/02/18 03:45:08;;;;;;;29.12;21.35;;;26.30;70.60;;;;;;1838634;77;21399;-75
2023/02/18 03:47:39;;;;;;;29.75;21.97;;;26.40;70.40;;;;;;1796831;77;21640;-75
2023/02/18 03:50:13;;;;;;;28.25;19.67;;;26.60;70.90;;;;;;1793848;79;21210;-73
2023/02/18 03:52:44;;;;;;;31.17;21.05;;;26.70;69.80;;;;;;1802340;78;21157;-73
2023/02/18 03:55:16;;;;;;;25.15;19.07;;;26.90;69.40;;;;;;1787875;79;21217;-75
2023/02/18 03:57:47;;;;;;;26.55;19.00;;;27.00;66.90;;;;;;1810187;78;21404;-75
2023/02/18 04:00:18;;;;;;;27.15;18.02;;;27.00;66.50;;;;;;1826433;77;21966;-76
2023/02/18 04:02:50;;;;;;;25.00;18.00;;;27.10;66.80;;;;;;1839120;76;21143;-76
2023/02/18 04:05:21;;;;;;;24.43;17.85;;;27.20;65.90;;;;;;1841795;77;21328;-74
2023/02/18 04:07:53;;;;;;;24.77;16.07;;;27.10;65.30;;;;;;1782263;79;21194;-76
2023/02/18 04:10:24;;;;;;;24.02;16.82;;;27.20;64.80;;;;;;1782571;79;21509;-76
2023/02/18 04:12:56;;;;;;;20.77;16.75;;;27.20;63.30;;;;;;1776598;79;21139;-76
2023/02/18 04:15:27;;;;;;;23.65;18.15;;;27.20;62.90;;;;;;1772205;79;21218;-77
2023/02/18 04:17:58;;;;;;;22.73;17.40;;;27.20;63.90;;;;;;1772709;79;21235;-76
2023/02/18 04:20:29;;;;;;;24.50;18.12;;;27.30;64.10;;;;;;1763983;79;21192;-76
2023/02/18 04:23:01;;;;;;;25.10;18.25;;;27.30;63.20;;;;;;1777227;79;21150;-76
2023/02/18 04:25:32;;;;;;;24.60;18.37;;;28.10;64.10;;;;;;1781937;79;21121;-77
2023/02/18 04:28:03;;;;;;;25.15;18.60;;;27.30;62.50;;;;;;1779105;79;21110;-77
2023/02/18 04:30:40;;;;;;;28.90;22.65;;;27.30;63.50;;;;;;1789912;79;21133;-77
2023/02/18 04:33:14;;;;;;;28.45;21.48;;;27.30;63.80;;;;;;1800499;79;21084;-75
2023/02/18 04:35:49;;;;;;;31.37;21.93;;;27.40;63.20;;;;;;1831829;76;21188;-74
2023/02/18 04:38:19;;;;;;;26.57;21.50;;;27.50;63.50;;;;;;1758302;81;21406;-74
2023/02/18 04:40:51;;;;;;;30.45;23.45;;;27.70;62.50;;;;;;1771764;79;21455;-73
2023/02/18 04:43:25;;;;;;;27.35;21.50;;;27.80;62.30;;;;;;1787132;79;21154;-73
2023/02/18 04:45:56;;;;;;;27.42;22.50;;;27.90;62.80;;;;;;1768553;79;21227;-75
2023/02/18 04:48:31;;;;;;;30.35;22.62;;;28.00;62.20;;;;;;1768592;80;21804;-74
2023/02/18 04:51:06;;;;;;;28.27;21.77;;;28.10;62.00;;;;;;1768685;80;21894;-74
2023/02/18 04:53:40;;;;;;;25.70;21.23;;;28.20;61.80;;;;;;1761999;80;21142;-74
2023/02/18 04:56:11;;;;;;;36.58;22.52;;;28.40;60.40;;;;;;1770780;80;21496;-76
2023/02/18 04:58:43;;;;;;;29.63;21.45;;;28.50;61.50;;;;;;1767951;80;21150;-76
2023/02/18 05:01:16;;;;;;;29.52;22.50;;;28.50;61.00;;;;;;1742434;82;21259;-77
2023/02/18 05:03:48;;;;;;;27.00;22.07;;;28.50;60.90;;;;;;1779937;79;21145;-75
2023/02/18 05:06:20;;;;;;;29.70;22.22;;;28.70;60.10;;;;;;1789300;80;21254;-74
2023/02/18 05:08:51;;;;;;;29.80;21.30;;;28.80;60.20;;;;;;1799486;77;21683;-76
2023/02/18 05:11:42;;;;;;;26.33;20.72;;;28.80;60.30;;;;;;1790794;80;21664;-75
2023/02/18 05:14:14;;;;;;;27.05;20.05;;;28.80;59.30;;;;;;1838188;76;21145;-75
2023/02/18 05:16:47;;;;;;;32.70;22.32;;;28.80;59.40;;;;;;1831747;77;21203;-74
2023/02/18 05:19:18;;;;;;;28.85;21.73;;;28.80;59.80;;;;;;1834836;77;21578;-76
2023/02/18 05:21:50;;;;;;;31.95;21.93;;;28.80;59.90;;;;;;1836547;77;21585;-76
2023/02/18 05:24:22;;;;;;;29.87;21.60;;;28.80;60.00;;;;;;1828261;77;21236;-77
2023/02/18 05:26:53;;;;;;;34.05;23.42;;;28.70;60.30;;;;;;1838280;75;21195;-76
2023/02/18 05:29:24;;;;;;;29.70;23.87;;;28.70;60.40;;;;;;1841253;77;21145;-76
2023/02/18 05:31:56;;;;;;;29.95;24.12;;;28.70;60.00;;;;;;1837025;77;21628;-75
2023/02/18 05:34:27;;;;;;;31.25;23.83;;;28.60;59.90;;;;;;1831839;77;21129;-77
2023/02/18 05:37:00;;;;;;;31.73;24.27;;;28.60;60.60;;;;;;1828756;76;21133;-77
2023/02/18 05:39:31;;;;;;;29.50;23.85;;;28.50;60.70;;;;;;1836906;76;21370;-75
2023/02/18 05:42:02;;;;;;;31.77;24.12;;;28.40;61.00;;;;;;1848757;76;21605;-75
2023/02/18 05:44:35;;;;;;;29.65;24.18;;;28.40;61.10;;;;;;1833353;76;21551;-77
2023/02/18 05:47:08;;;;;;;31.75;25.17;;;28.40;61.10;;;;;;1839803;76;21210;-75
2023/02/18 05:49:41;;;;;;;31.90;24.00;;;28.40;60.80;;;;;;1840665;76;21160;-75
2023/02/18 05:52:13;;;;;;;31.82;26.20;;;28.60;60.90;;;;;;1841448;76;21135;-73
2023/02/18 05:54:45;;;;;;;35.50;27.48;;;28.70;60.90;;;;;;1827612;76;21159;-75
2023/02/18 05:57:21;;;;;;;34.78;25.62;;;28.70;61.00;;;;;;1832711;76;21146;-74
2023/02/18 05:59:52;;;;;;;36.20;28.30;;;28.70;60.80;;;;;;1845006;76;21137;-76
2023/02/18 06:02:23;;;;;;;35.75;25.90;;;28.70;61.00;;;;;;1825302;76;21910;-75
2023/02/18 06:04:54;;;;;;;36.48;27.80;;;28.60;61.20;;;;;;1833632;76;21131;-74
2023/02/18 06:07:26;;;;;;;41.50;28.55;;;28.60;61.10;;;;;;1847699;76;21136;-73
2023/02/18 06:10:00;;;;;;;33.90;27.65;;;28.60;61.30;;;;;;1822578;77;21222;-76
2023/02/18 06:12:32;;;;;;;38.70;28.20;;;28.60;61.60;;;;;;1842031;77;21533;-74
2023/02/18 06:15:03;;;;;;;38.00;28.45;;;28.70;61.80;;;;;;1844112;76;21130;-75
2023/02/18 06:17:39;;;;;;;38.02;28.40;;;28.70;61.60;;;;;;1861489;76;21448;-74
2023/02/18 06:20:10;;;;;;;42.65;30.05;;;28.80;61.50;;;;;;1855447;75;21121;-76
2023/02/18 06:22:43;;;;;;;34.45;28.42;;;28.90;60.90;;;;;;1850399;76;21211;-74
2023/02/18 06:25:16;;;;;;;40.23;29.60;;;28.90;60.80;;;;;;1833400;76;21706;-75
2023/02/18 06:27:49;;;;;;;39.00;29.65;;;29.00;61.00;;;;;;1854012;76;21241;-74
2023/02/18 06:30:20;;;;;;;36.13;29.75;;;29.00;60.80;;;;;;1869008;74;21877;-76
2023/02/18 06:32:53;;;;;;;38.60;31.42;;;28.80;61.20;;;;;;1886246;74;21827;-76
2023/02/18 06:35:24;;;;;;;39.42;31.40;;;28.80;60.90;;;;;;1873327;74;21211;-75
2023/02/18 06:37:56;;;;;;;37.05;31.60;;;28.80;61.10;;;;;;1891081;74;21144;-75
2023/02/18 06:40:27;;;;;;;36.80;30.37;;;28.80;61.00;;;;;;1866006;76;21517;-75
2023/02/18 06:42:58;;;;;;;37.55;30.08;;;28.80;61.10;;;;;;1867482;74;21174;-83
2023/02/18 06:45:29;;;;;;;36.65;30.17;;;28.80;61.00;;;;;;1882861;74;21093;-84
2023/02/18 06:48:00;;;;;;;36.65;28.92;;;29.00;61.20;;;;;;1879257;74;21599;-84
2023/02/18 06:50:31;;;;;;;35.90;26.90;;;29.00;60.60;;;;;;1892786;74;22129;-84
2023/02/18 06:53:02;;;;;;;34.65;27.00;;;29.00;60.00;;;;;;1895353;74;21131;-86
2023/02/18 06:55:34;;;;;;;34.40;27.32;;;29.00;59.80;;;;;;1893583;74;21265;-87
2023/02/18 06:58:05;;;;;;;36.00;26.48;;;29.10;60.00;;;;;;1879885;74;21654;-85
2023/02/18 07:00:37;;;;;;;36.33;25.97;;;29.00;60.00;;;;;;1869066;74;21105;-83
2023/02/18 07:03:11;;;;;;;31.60;24.50;;;29.10;60.30;;;;;;1872684;74;21120;-85
2023/02/18 07:05:43;;;;;;;32.08;24.70;;;29.10;59.70;;;;;;1871731;74;21210;-84
2023/02/18 07:08:16;;;;;;;34.35;25.77;;;29.10;59.30;;;;;;1880756;74;21117;-84
2023/02/18 07:11:09;;;;;;;36.50;24.15;;;29.10;59.40;;;;;;1859235;76;21166;-85
2023/02/18 07:13:46;;;;;;;32.70;24.12;;;29.10;59.20;;;;;;1863042;75;21608;-85
2023/02/18 07:16:16;;;;;;;;;;;29.10;59.30;;;;;;1891242;74;21125;-84
2023/02/18 07:18:47;;;;;;;29.95;23.80;;;29.10;59.90;;;;;;1863334;74;20222;-85
2023/02/18 07:21:18;;;;;;;29.25;23.45;;;29.10;59.00;;;;;;1779005;80;21095;-85
2023/02/18 07:23:49;;;;;;;33.53;23.83;;;29.10;58.90;;;;;;1804132;77;21246;-84
2023/02/18 07:26:20;;;;;;;28.85;21.33;;;29.00;58.80;;;;;;1800820;77;21166;-83
2023/02/18 07:28:52;;;;;;;28.80;21.60;;;29.00;59.20;;;;;;1822397;77;21180;-84
2023/02/18 07:31:23;;;;;;;37.55;21.77;;;29.00;59.40;;;;;;1821474;77;21739;-83
2023/02/18 07:33:54;;;;;;;28.87;22.45;;;29.00;59.40;;;;;;1813238;77;21160;-84
2023/02/18 07:36:25;;;;;;;29.42;21.55;;;28.90;59.00;;;;;;1800663;77;21601;-84
2023/02/18 07:38:56;;;;;;;28.20;22.62;;;28.90;59.00;;;;;;1823835;77;21156;-85
2023/02/18 07:41:29;;;;;;;26.52;20.72;;;28.90;59.10;;;;;;1826348;78;21090;-85
2023/02/18 07:44:08;;;;;;;26.50;21.40;;;28.90;59.20;;;;;;1827446;77;21226;-84
2023/02/18 07:46:57;;;;;;;28.67;21.70;;;28.90;59.00;;;;;;1808290;78;21156;-74
2023/02/18 07:49:29;;;;;;;26.70;22.00;;;29.00;58.80;;;;;;1810988;78;21106;-75
2023/02/18 07:52:01;;;;;;;25.72;21.75;;;29.00;58.80;;;;;;1816490;77;21401;-77
2023/02/18 07:54:34;;;;;;;31.68;22.50;;;29.10;58.60;;;;;;1808693;77;21104;-75
2023/02/18 07:57:05;;;;;;;28.52;22.45;;;29.10;58.10;;;;;;1815102;76;21174;-76
2023/02/18 07:59:37;;;;;;;34.65;22.75;;;29.10;58.00;;;;;;1822377;77;21113;-77
2023/02/18 08:02:11;;;;;;;23.98;21.27;;;29.10;58.20;;;;;;1837519;78;21628;-75
2023/02/18 08:04:43;;;;;;;26.45;20.40;;;29.00;58.20;;;;;;1820970;77;21217;-75
2023/02/18 08:07:16;;;;;;;25.90;21.42;;;29.00;58.30;;;;;;1821134;77;21137;-76
2023/02/18 08:09:52;;;;;;;27.00;21.75;;;29.00;58.50;;;;;;1822304;77;21906;-77
2023/02/18 08:12:20;;;;;;;28.77;22.20;;;29.00;58.60;;;;;;1813571;77;21101;-76
2023/02/18 08:14:52;;;;;;;25.57;21.68;;;29.10;58.70;;;;;;1825300;76;21205;-76
2023/02/18 08:17:26;;;;;;;25.65;21.48;;;29.10;58.30;;;;;;1850140;76;21152;-73
2023/02/18 08:19:57;;;;;;;28.73;21.50;;;29.10;58.50;;;;;;1825905;77;21104;-76
2023/02/18 08:22:31;;;;;;;28.80;22.87;;;29.10;58.50;;;;;;1848519;76;21089;-76
2023/02/18 08:25:02;;;;;;;28.57;21.65;;;29.10;58.20;;;;;;1835430;76;21198;-72
2023/02/18 08:27:40;;;;;;;31.90;22.22;;;29.10;58.30;;;;;;1888832;76;21068;-77
2023/02/18 08:30:11;;;;;;;24.10;21.48;;;29.00;58.30;;;;;;1855955;76;21097;-75
2023/02/18 08:32:43;;;;;;;29.80;22.87;;;29.00;58.60;;;;;;1830158;76;21886;-74
2023/02/18 08:35:17;;;;;;;25.77;20.40;;;29.00;58.30;;;;;;1830117;76;21152;-74
2023/02/18 08:37:51;;;;;;;26.48;21.12;;;29.00;58.80;;;;;;1831997;77;21420;-75
2023/02/18 08:40:23;;;;;;;26.35;21.33;;;29.10;58.80;;;;;;1827892;76;21611;-75
2023/02/18 08:42:57;;;;;;;28.77;21.15;;;29.20;58.40;;;;;;1838300;75;21189;-74
2023/02/18 08:45:28;;;;;;;28.52;21.37;;;29.10;58.30;;;;;;1835425;76;21120;-74
2023/02/18 08:48:00;;;;;;;24.10;20.50;;;29.10;58.00;;;;;;1844160;76;21144;-74
2023/02/18 08:50:32;;;;;;;27.93;21.15;;;29.10;58.50;;;;;;1824722;76;21139;-73
2023/02/18 08:53:04;;;;;;;23.02;19.55;;;29.00;58.20;;;;;;1847437;76;21178;-74
2023/02/18 08:55:37;;;;;;;25.72;20.77;;;29.00;58.50;;;;;;1835037;76;21164;-75
2023/02/18 08:58:09;;;;;;;23.62;19.85;;;29.00;58.70;;;;;;1841690;76;21610;-75
2023/02/18 09:00:42;;;;;;;27.13;20.65;;;28.90;58.80;;;;;;1877733;74;21836;-75
2023/02/18 09:03:16;;;;;;;30.57;20.32;;;28.90;59.10;;;;;;1888072;74;21354;-75
2023/02/18 09:05:51;;;;;;;27.10;20.10;;;28.80;59.20;;;;;;1880631;76;21119;-73
2023/02/18 09:08:23;;;;;;;26.27;19.85;;;28.80;59.30;;;;;;1887015;76;21121;-76
2023/02/18 09:10:58;;;;;;;26.00;20.50;;;28.80;59.20;;;;;;1884100;74;21734;-75
2023/02/18 09:13:41;;;;;;;23.73;19.95;;;28.80;59.10;;;;;;1880129;76;21654;-74
2023/02/18 09:16:26;;;;;;;25.60;20.70;;;28.80;58.90;;;;;;1763995;79;21213;-74
2023/02/18 09:19:01;;;;;;;26.00;19.23;;;28.90;59.10;;;;;;1853178;76;21138;-74
2023/02/18 09:21:33;;;;;;;28.27;20.57;;;28.80;59.10;;;;;;1819199;77;21152;-74
2023/02/18 09:24:06;;;;;;;28.20;20.45;;;28.80;59.20;;;;;;1809396;77;21218;-75
2023/02/18 09:26:39;;;;;;;26.23;20.25;;;28.80;59.30;;;;;;1805086;78;22059;-77
2023/02/18 09:29:10;;;;;;;28.40;20.95;;;28.80;59.30;;;;;;1823524;77;21157;-74
2023/02/18 09:31:43;;;;;;;28.92;19.55;;;28.80;59.10;;;;;;1798960;77;21250;-74
2023/02/18 09:34:18;;;;;;;28.27;19.62;;;28.90;59.00;;;;;;1808344;78;21129;-74
2023/02/18 09:36:53;;;;;;;43.25;29.37;;;28.90;59.00;;;;;;1804007;78;21526;-73
2023/02/18 09:39:29;;;;;;;27.98;21.07;;;29.00;59.00;;;;;;1815527;77;21660;-73
2023/02/18 09:42:03;;;;;;;26.00;20.65;;;29.00;59.00;;;;;;1805634;77;21230;-75
2023/02/18 09:44:42;;;;;;;24.18;19.82;;;29.00;58.60;;;;;;1811129;77;21239;-75
2023/02/18 09:47:37;;;;;;;24.12;18.82;;;29.00;58.80;;;;;;1821562;77;21135;-73
2023/02/18 09:50:21;;;;;;;23.57;19.02;;;29.00;59.60;;;;;;1811532;77;21144;-74
2023/02/18 09:53:00;;;;;;;29.45;19.45;;;28.90;58.70;;;;;;1776917;78;21404;-73
2023/02/18 09:55:35;;;;;;;24.27;19.70;;;28.90;58.60;;;;;;1808927;77;21204;-76
2023/02/18 09:58:08;;;;;;;25.90;20.25;;;28.90;58.80;;;;;;1817962;77;21792;-73
2023/02/18 10:00:47;;;;;;;22.60;19.00;;;28.80;58.80;;;;;;1812227;77;21137;-75
2023/02/18 10:03:26;;;;;;;28.77;20.02;;;28.80;58.90;;;;;;1820809;77;21149;-75
2023/02/18 10:06:03;;;;;;;27.20;20.25;;;28.80;59.10;;;;;;1814957;78;21153;-76
2023/02/18 10:08:40;;;;;;;23.07;20.10;;;28.80;59.30;;;;;;1801362;78;21145;-82
2023/02/18 10:11:32;;;;;;;28.12;19.70;;;28.80;59.30;;;;;;1808620;78;21255;-82
2023/02/18 10:14:05;;;;;;;26.57;19.65;;;28.70;59.40;;;;;;1820005;77;21128;-82
2023/02/18 10:16:39;;;;;;;26.60;19.40;;;28.70;59.50;;;;;;1818617;76;21402;-83
2023/02/18 10:19:36;;;;;;;32.83;21.15;;;28.70;59.70;;;;;;1819480;76;21136;-83
2023/02/18 10:22:09;;;;;;;24.05;20.57;;;28.70;59.70;;;;;;1843041;76;21148;-82
2023/02/18 10:24:44;;;;;;;;;;;28.70;59.80;;;;;;1844733;76;21136;-84
2023/02/18 10:27:39;;;;;;;31.70;21.40;;;28.70;60.00;;;;;;1850086;76;20213;-84
2023/02/18 10:30:19;;;;;;;29.40;22.13;;;28.60;59.90;;;;;;1828238;76;21568;-81
2023/02/18 10:32:53;;;;;;;32.08;23.07;;;28.70;60.00;;;;;;1814706;78;21180;-80
2023/02/18 10:35:35;;;;;;;29.50;21.82;;;28.60;60.20;;;;;;1846541;76;21207;-82
2023/02/18 10:38:13;;;;;;;30.43;20.95;;;28.60;60.40;;;;;;1829907;76;21132;-82
2023/02/18 10:41:01;;;;;;;28.70;21.73;;;28.60;60.60;;;;;;1884217;75;21129;-81
2023/02/18 10:43:58;;;;;;;26.90;22.00;;;28.60;60.90;;;;;;1886688;75;21169;-82
2023/02/18 10:46:39;;;;;;;28.70;22.87;;;28.50;60.90;;;;;;1842968;75;21161;-81
2023/02/18 10:49:21;;;;;;;27.00;21.57;;;28.50;61.10;;;;;;1884827;75;21148;-81
2023/02/18 10:51:54;;;;;;;27.55;21.87;;;28.50;61.30;;;;;;1849421;76;21988;-83
2023/02/18 10:54:29;;;;;;;30.37;23.32;;;28.50;61.60;;;;;;1879212;74;21128;-81
2023/02/18 10:57:09;;;;;;;;;;;28.40;61.80;;;;;;1879735;75;21208;-81
2023/02/18 10:59:56;;;;;;;31.27;23.83;;;28.40;61.90;;;;;;1856958;76;20356;-81
2023/02/18 11:02:18;;;;;;;31.60;24.82;;;28.40;62.20;;;;;;1870423;75;21221;-82
2023/02/18 11:04:50;;;;;;;33.38;24.55;;;28.40;62.30;;;;;;1874634;76;22008;-82
2023/02/18 11:07:24;;;;;;;33.83;24.32;;;28.40;62.40;;;;;;1853787;76;21596;-81
2023/02/18 11:09:59;;;;;;;32.35;24.67;;;28.30;62.40;;;;;;1873768;76;21187;-82
2023/02/18 11:12:47;;;;;;;29.72;24.20;;;28.30;62.50;;;;;;1862792;76;21113;-82
2023/02/18 11:15:23;;;;;;;34.17;23.87;;;28.30;62.60;;;;;;1857926;76;21636;-83
2023/02/18 11:18:03;;;;;;;33.33;25.40;;;28.20;62.60;;;;;;1863941;76;21210;-82
2023/02/18 11:20:36;;;;;;;30.50;24.50;;;28.20;62.80;;;;;;1874955;75;21133;-83
2023/02/18 11:23:09;;;;;;;35.88;24.25;;;28.20;62.90;;;;;;1858470;76;21085;-84
2023/02/18 11:25:42;;;;;;;34.48;25.85;;;28.20;62.90;;;;;;1860295;76;21230;-83
2023/02/18 11:28:21;;;;;;;37.13;28.00;;;28.20;63.00;;;;;;1852784;76;21226;-83
2023/02/18 11:31:00;;;;;;;35.60;25.17;;;28.20;63.00;;;;;;1827595;77;21778;-81
2023/02/18 11:33:45;;;;;;;33.18;26.93;;;28.10;63.10;;;;;;1834946;77;21194;-83
2023/02/18 11:36:25;;;;;;;35.13;26.40;;;28.10;63.30;;;;;;1790132;79;21141;-82
2023/02/18 11:39:10;;;;;;;34.50;25.90;;;28.10;63.30;;;;;;1842710;77;21545;-82
2023/02/18 11:42:15;;;;;;;35.38;25.95;;;28.10;63.40;;;;;;1831295;76;21181;-83
2023/02/18 11:44:43;;;;;;;39.67;27.48;;;28.10;63.70;;;;;;1749529;81;21349;-82
2023/02/18 11:47:31;;;;;;;39.85;27.20;;;28.00;63.60;;;;;;1740481;80;21152;-81
2023/02/18 11:56:58;;;;;;;41.88;28.92;;;28.00;63.90;;;;;;1798098;79;21159;-83
2023/02/18 11:59:32;;;;;;;40.43;28.85;;;27.90;64.00;;;;;;1788170;79;21168;-84
2023/02/18 12:02:15;;;;;;;41.80;29.82;;;27.90;64.10;;;;;;1779263;79;21743;-83
2023/02/18 12:04:48;;;;;;;41.13;29.12;;;27.90;64.30;;;;;;1779741;80;21491;-84
2023/02/18 12:10:49;;;;;;;43.70;31.00;;;27.80;64.50;;;;;;1795537;79;21192;-84
2023/02/18 12:13:41;;;;;;;46.53;33.40;;;27.80;64.60;;;;;;1796054;78;21166;-82
2023/02/18 12:16:48;;;;;;;49.42;33.98;;;27.80;64.90;;;;;;1781679;79;21233;-83
2023/02/18 12:19:37;;;;;;;50.75;35.95;;;27.80;65.10;;;;;;1808042;78;21614;-82
2023/02/18 12:22:32;;;;;;;49.35;35.73;;;27.70;65.20;;;;;;1827599;78;21185;-82
2023/02/18 12:25:28;;;;;;;52.48;35.08;;;27.80;65.50;;;;;;1793465;77;21638;-82
2023/02/18 12:28:15;;;;;;;41.20;32.48;;;27.70;65.50;;;;;;1819439;78;21172;-85
2023/02/18 12:31:08;;;;;;;39.38;30.02;;;27.70;65.60;;;;;;1833949;78;21151;-85
2023/02/18 12:34:03;;;;;;;39.98;31.02;;;27.70;65.70;;;;;;1795023;78;21130;-81
2023/02/18 12:37:02;;;;;;;41.28;28.83;;;27.70;65.80;;;;;;1785743;79;21216;-83
2023/02/18 12:39:51;;;;;;;44.15;30.75;;;27.70;65.80;;;;;;1806723;78;21183;-83
2023/02/18 12:42:29;;;;;;;39.83;30.48;;;27.60;65.80;;;;;;1843213;76;21172;-83
2023/02/18 12:45:22;;;;;;;44.70;31.85;;;27.60;65.80;;;;;;1866579;76;21135;-84
2023/02/18 12:48:29;;;;;;;42.13;31.33;;;27.60;66.00;;;;;;1806781;77;21161;-83
2023/02/18 12:51:25;;;;;;;46.02;32.10;;;27.60;66.00;;;;;;1823644;78;21218;-82
2023/02/18 12:54:03;;;;;;;42.98;31.73;;;27.60;66.00;;;;;;1813471;77;21168;-82
2023/02/18 12:56:55;;;;;;;42.53;30.92;;;27.60;66.20;;;;;;1821938;78;21158;-84
2023/02/18 13:00:02;;;;;;;39.73;30.62;;;27.60;66.30;;;;;;1833301;76;21144;-81
2023/02/18 13:03:00;;;;;;;45.33;33.45;;;27.50;66.30;;;;;;1840383;76;21144;-85
2023/02/18 13:05:55;;;;;;;44.75;30.75;;;27.60;66.40;;;;;;1841065;76;21533;-82
2023/02/18 13:08:35;;;;;;;42.17;30.60;;;27.50;66.50;;;;;;1788221;76;21771;-83
2023/02/18 13:11:17;;;;;;;47.90;31.68;;;27.50;66.50;;;;;;1844135;76;21062;-82
2023/02/18 13:14:22;;;;;;;46.20;31.57;;;27.50;66.70;;;;;;1847499;76;21142;-83
2023/02/18 13:17:13;;;;;;;39.33;29.20;;;27.50;66.80;;;;;;1779968;76;21258;-83
2023/02/18 13:19:49;;;;;;;43.80;31.10;;;27.50;66.90;;;;;;1813685;76;21156;-84
2023/02/18 13:22:24;;;;;;;45.73;32.67;;;27.40;67.20;;;;;;1818862;77;21605;-83
2023/02/18 13:25:00;;;;;;;48.17;31.57;;;27.40;67.50;;;;;;1812496;77;21109;-82